createdAt,value
2023-05-13T00:02:31.585Z,59.66
2023-05-13T00:05:17.489Z,59.52
2023-05-13T00:08:07.154Z,59.59
2023-05-13T00:10:52.736Z,60.08
2023-05-13T00:13:38.129Z,60.22
2023-05-13T00:16:25.740Z,60.66
2023-05-13T00:19:12.305Z,60.89
2023-05-13T00:21:58.056Z,60.87
2023-05-13T00:24:43.457Z,60.38
2023-05-13T00:27:28.731Z,60.43
2023-05-13T00:30:14.309Z,60.56
2023-05-13T00:33:00.065Z,60.69
2023-05-13T00:35:45.807Z,60.69
2023-05-13T00:38:31.195Z,60.48
2023-05-13T00:41:17.739Z,60.85
2023-05-13T00:44:03.120Z,60.86
2023-05-13T00:46:49.793Z,61.14
2023-05-13T00:49:35.288Z,62.03
2023-05-13T00:52:20.725Z,62.62
2023-05-13T00:55:07.252Z,62.71
2023-05-13T00:57:52.659Z,63.41
2023-05-13T01:00:47.057Z,62.95
2023-05-13T01:03:51.396Z,63.37
2023-05-13T01:06:48.128Z,63.05
2023-05-13T01:10:02.613Z,62.63
2023-05-13T01:12:53.210Z,62.44
2023-05-13T01:15:46.146Z,62.35
2023-05-13T01:18:37.655Z,61.98
2023-05-13T01:21:27.656Z,61.84
2023-05-13T01:24:13.555Z,62.01
2023-05-13T01:27:00.013Z,62.83
2023-05-13T01:29:45.816Z,63.46
2023-05-13T01:32:36.121Z,62.99
2023-05-13T01:35:23.243Z,62.56
2023-05-13T01:38:09.128Z,62.64
2023-05-13T01:40:56.677Z,62.78
2023-05-13T01:43:42.067Z,63.14
2023-05-13T01:46:27.788Z,63.44
2023-05-13T01:49:13.779Z,63.69
2023-05-13T01:51:59.048Z,64.01
2023-05-13T01:54:44.948Z,63.41
2023-05-13T01:57:32.719Z,63.73
2023-05-13T02:00:18.548Z,63.70
2023-05-13T02:03:07.672Z,63.02
2023-05-13T02:05:54.290Z,63.32
2023-05-13T02:08:39.735Z,63.13
2023-05-13T02:11:25.074Z,63.31
2023-05-13T02:14:10.614Z,62.88
2023-05-13T02:16:56.144Z,62.64
2023-05-13T02:19:41.518Z,62.77
2023-05-13T02:22:27.370Z,62.40
2023-05-13T02:25:12.993Z,62.40
2023-05-13T02:27:58.421Z,62.04
2023-05-13T02:30:45.025Z,62.63
2023-05-13T02:33:30.476Z,62.54
2023-05-13T02:36:16.090Z,62.70
2023-05-13T02:39:01.800Z,62.54
2023-05-13T02:41:48.561Z,62.92
2023-05-13T02:44:34.618Z,62.64
2023-05-13T02:47:21.008Z,63.21
2023-05-13T02:50:09.005Z,63.53
2023-05-13T02:52:55.765Z,63.98
2023-05-13T02:55:42.789Z,64.04
2023-05-13T02:58:27.979Z,64.14
2023-05-13T03:01:14.474Z,64.12
2023-05-13T03:03:59.901Z,63.93
2023-05-13T03:06:46.953Z,64.31
2023-05-13T03:09:32.528Z,63.93
2023-05-13T03:12:19.093Z,63.28
2023-05-13T03:15:04.748Z,63.62
2023-05-13T03:17:50.314Z,63.00
2023-05-13T03:20:37.277Z,63.78
2023-05-13T03:23:23.151Z,63.86
2023-05-13T03:26:10.937Z,63.66
2023-05-13T03:28:56.419Z,64.20
2023-05-13T03:31:41.817Z,64.27
2023-05-13T03:34:27.064Z,64.44
2023-05-13T03:37:12.783Z,64.59
2023-05-13T03:39:58.095Z,64.95
2023-05-13T03:42:44.546Z,64.77
2023-05-13T03:45:31.315Z,64.92
2023-05-13T03:48:21.655Z,64.90
2023-05-13T03:51:07.033Z,65.12
2023-05-13T03:53:52.491Z,64.98
2023-05-13T03:56:38.006Z,64.69
2023-05-13T03:59:23.972Z,64.68
2023-05-13T04:02:10.263Z,65.01
2023-05-13T04:04:55.692Z,65.36
2023-05-13T04:07:41.432Z,65.47
2023-05-13T04:10:26.994Z,65.53
2023-05-13T04:13:12.424Z,65.80
2023-05-13T04:15:58.117Z,66.27
2023-05-13T04:18:43.715Z,66.25
2023-05-13T04:21:29.367Z,65.75
2023-05-13T04:24:15.220Z,65.43
2023-05-13T04:27:01.509Z,65.46
2023-05-13T04:29:48.266Z,65.61
2023-05-13T04:32:33.792Z,66.07
2023-05-13T04:35:19.321Z,65.31
2023-05-13T04:38:09.323Z,65.64
2023-05-13T04:40:54.681Z,64.89
2023-05-13T04:43:47.494Z,65.22
2023-05-13T04:46:33.049Z,64.82
2023-05-13T04:49:18.623Z,64.33
2023-05-13T04:52:06.025Z,63.83
2023-05-13T04:54:52.510Z,62.66
2023-05-13T04:57:38.260Z,62.51
2023-05-13T05:00:24.175Z,61.66
2023-05-13T05:03:10.681Z,60.74
2023-05-13T05:05:56.806Z,60.29
2023-05-13T05:08:43.562Z,59.59
2023-05-13T05:11:29.432Z,58.40
2023-05-13T05:14:15.376Z,58.93
2023-05-13T05:17:00.844Z,58.32
2023-05-13T05:19:45.995Z,58.08
2023-05-13T05:22:35.212Z,57.72
2023-05-13T05:25:20.839Z,57.74
2023-05-13T05:28:06.292Z,58.22
2023-05-13T05:30:53.940Z,58.58
2023-05-13T05:33:44.261Z,56.54
2023-05-13T05:36:30.516Z,55.82
2023-05-13T05:39:16.118Z,55.91
2023-05-13T05:42:01.752Z,54.86
2023-05-13T05:44:47.659Z,53.27
2023-05-13T05:47:33.187Z,52.67
2023-05-13T05:50:18.459Z,52.41
2023-05-13T05:53:04.179Z,52.28
2023-05-13T05:55:53.073Z,51.70
2023-05-13T05:58:39.487Z,51.87
2023-05-13T06:01:25.043Z,51.77
2023-05-13T06:04:10.956Z,50.92
2023-05-13T06:06:56.792Z,50.22
2023-05-13T06:09:42.457Z,47.34
2023-05-13T06:12:27.772Z,46.72
2023-05-13T06:15:13.181Z,46.65
2023-05-13T06:17:58.980Z,46.03
2023-05-13T06:20:44.782Z,44.95
2023-05-13T06:23:30.171Z,45.14
2023-05-13T06:26:15.634Z,45.45
2023-05-13T06:29:01.147Z,44.37
2023-05-13T06:31:46.531Z,44.34
2023-05-13T06:34:32.073Z,45.03
2023-05-13T06:37:18.684Z,45.31
2023-05-13T06:40:04.947Z,44.53
2023-05-13T06:42:56.157Z,44.63
2023-05-13T06:45:48.793Z,44.61
2023-05-13T06:48:34.694Z,44.24
2023-05-13T06:51:19.934Z,43.62
2023-05-13T06:54:05.953Z,44.42
2023-05-13T06:56:52.292Z,43.58
2023-05-13T06:59:37.814Z,43.70
2023-05-13T07:02:23.237Z,43.63
2023-05-13T07:05:11.395Z,43.12
2023-05-13T07:07:57.020Z,42.03
2023-05-13T07:10:42.427Z,42.92
2023-05-13T07:13:27.832Z,41.33
2023-05-13T07:16:14.835Z,41.83
2023-05-13T07:19:00.623Z,42.09
2023-05-13T07:21:45.816Z,40.93
2023-05-13T07:24:31.193Z,40.24
2023-05-13T07:27:16.812Z,40.35
2023-05-13T07:30:02.499Z,39.42
2023-05-13T07:32:48.332Z,38.42
2023-05-13T07:35:34.182Z,38.84
2023-05-13T07:38:19.546Z,38.29
2023-05-13T07:41:05.277Z,38.95
2023-05-13T07:43:50.823Z,38.41
2023-05-13T07:46:36.184Z,37.86
2023-05-13T07:49:21.794Z,37.38
2023-05-13T07:52:07.844Z,37.06
2023-05-13T07:54:54.740Z,37.32
2023-05-13T07:57:40.564Z,36.77
2023-05-13T08:00:26.237Z,36.07
2023-05-13T08:03:12.403Z,35.37
2023-05-13T08:05:57.942Z,35.61
2023-05-13T08:08:43.280Z,35.27
2023-05-13T08:11:29.083Z,36.19
2023-05-13T08:14:14.413Z,35.88
2023-05-13T08:16:59.786Z,34.71
2023-05-13T08:19:46.074Z,33.74
2023-05-13T08:22:32.494Z,33.21
2023-05-13T08:25:17.950Z,33.03
2023-05-13T08:28:03.877Z,32.92
2023-05-13T08:30:49.198Z,33.12
2023-05-13T08:33:34.527Z,32.37
2023-05-13T08:36:21.845Z,32.52
2023-05-13T08:39:07.866Z,32.84
2023-05-13T08:41:57.684Z,33.05
2023-05-13T08:44:44.328Z,31.67
2023-05-13T08:47:36.684Z,31.53
2023-05-13T08:50:23.085Z,31.87
2023-05-13T08:53:11.512Z,31.58
2023-05-13T08:55:57.319Z,32.02
2023-05-13T08:58:42.839Z,30.97
2023-05-13T09:01:29.957Z,31.59
2023-05-13T09:04:15.744Z,30.68
2023-05-13T09:07:01.663Z,31.72
2023-05-13T09:09:47.561Z,31.75
2023-05-13T09:12:51.759Z,31.27
2023-05-13T09:15:41.927Z,31.11
2023-05-13T09:18:32.256Z,31.55
2023-05-13T09:21:25.421Z,31.29
2023-05-13T09:24:18.769Z,31.68
2023-05-13T09:27:04.274Z,31.21
2023-05-13T09:29:59.817Z,31.47
2023-05-13T09:32:45.162Z,31.81
2023-05-13T09:35:32.565Z,30.33
2023-05-13T09:38:26.935Z,31.73
2023-05-13T09:41:12.536Z,31.18
2023-05-13T09:43:58.719Z,31.46
2023-05-13T09:46:44.519Z,31.78
2023-05-13T09:49:31.765Z,31.56
2023-05-13T09:52:17.511Z,31.36
2023-05-13T09:55:06.800Z,30.59
2023-05-13T09:57:53.485Z,30.84
2023-05-13T10:00:43.618Z,30.44
2023-05-13T10:03:29.947Z,31.48
2023-05-13T10:06:22.356Z,30.64
2023-05-13T10:09:10.109Z,31.51
2023-05-13T10:11:56.372Z,30.73
2023-05-13T10:14:43.411Z,31.05
2023-05-13T10:17:31.298Z,31.83
2023-05-13T10:20:17.514Z,30.52
2023-05-13T10:23:04.298Z,30.13
2023-05-13T10:25:55.867Z,29.97
2023-05-13T10:28:43.630Z,30.69
2023-05-13T10:31:31.721Z,30.96
2023-05-13T10:34:17.468Z,31.13
2023-05-13T10:37:30.746Z,31.95
2023-05-13T10:40:38.998Z,30.64
2023-05-13T10:43:31.071Z,30.52
2023-05-13T10:46:19.289Z,30.20
2023-05-13T10:49:04.565Z,30.21
2023-05-13T10:51:50.138Z,31.07
2023-05-13T10:54:41.978Z,30.64
2023-05-13T10:57:29.645Z,30.96
2023-05-13T11:00:17.039Z,31.21
2023-05-13T11:03:30.041Z,30.93
2023-05-13T11:06:19.494Z,31.15
2023-05-13T11:09:12.121Z,31.28
2023-05-13T11:12:00.180Z,31.57
2023-05-13T11:14:45.818Z,31.49
2023-05-13T11:17:32.038Z,32.34
2023-05-13T11:20:19.362Z,32.69
2023-05-13T11:23:05.822Z,33.56
2023-05-13T11:26:16.258Z,33.07
2023-05-13T11:29:08.051Z,34.81
2023-05-13T11:31:53.588Z,36.13
2023-05-13T11:34:50.562Z,36.25
2023-05-13T11:37:43.366Z,35.73
2023-05-13T11:40:32.861Z,35.72
2023-05-13T11:43:22.263Z,35.83
2023-05-13T11:46:10.307Z,33.90
2023-05-13T11:48:55.839Z,34.13
2023-05-13T11:51:41.455Z,34.56
2023-05-13T11:54:27.409Z,32.72
2023-05-13T11:57:32.873Z,33.59
2023-05-13T12:00:31.048Z,33.39
2023-05-13T12:03:16.956Z,32.96
2023-05-13T12:06:03.278Z,33.64
2023-05-13T12:08:48.600Z,32.97
2023-05-13T12:11:34.103Z,32.49
2023-05-13T12:14:22.895Z,32.73
2023-05-13T12:17:08.594Z,32.79
2023-05-13T12:20:13.706Z,33.27
2023-05-13T12:23:01.637Z,32.63
2023-05-13T12:25:50.952Z,32.09
2023-05-13T12:28:36.487Z,32.35
2023-05-13T12:31:21.866Z,31.67
2023-05-13T12:34:07.241Z,31.46
2023-05-13T12:36:58.315Z,32.22
2023-05-13T12:39:48.465Z,32.51
2023-05-13T12:42:34.861Z,33.38
2023-05-13T12:45:21.695Z,31.90
2023-05-13T12:48:11.310Z,31.65
2023-05-13T12:50:59.129Z,32.02
2023-05-13T12:53:46.052Z,31.30
2023-05-13T12:56:31.509Z,31.13
2023-05-13T12:59:19.094Z,31.61
2023-05-13T13:02:04.813Z,31.35
2023-05-13T13:04:51.082Z,31.30
2023-05-13T13:07:38.079Z,31.98
2023-05-13T13:10:23.541Z,30.87
2023-05-13T13:13:08.950Z,30.72
2023-05-13T13:15:54.348Z,30.62
2023-05-13T13:18:40.358Z,30.31
2023-05-13T13:21:25.685Z,31.08
2023-05-13T13:24:11.185Z,31.45
2023-05-13T13:26:56.692Z,32.60
2023-05-13T13:29:43.284Z,31.73
2023-05-13T13:32:29.306Z,32.33
2023-05-13T13:35:14.939Z,33.60
2023-05-13T13:38:00.663Z,33.89
2023-05-13T13:40:46.489Z,34.11
2023-05-13T13:43:32.473Z,32.80
2023-05-13T13:46:17.873Z,32.08
2023-05-13T13:49:10.176Z,32.38
2023-05-13T13:52:02.340Z,31.51
2023-05-13T13:54:48.852Z,31.80
2023-05-13T13:57:34.187Z,31.71
2023-05-13T14:00:19.646Z,32.52
2023-05-13T14:03:05.088Z,33.21
2023-05-13T14:05:51.901Z,32.83
2023-05-13T14:08:37.005Z,32.77
2023-05-13T14:11:22.505Z,33.67
2023-05-13T14:14:08.484Z,32.72
2023-05-13T14:16:55.109Z,30.78
2023-05-13T14:19:42.391Z,31.53
2023-05-13T14:22:28.007Z,31.63
2023-05-13T14:25:14.214Z,31.16
2023-05-13T14:27:59.696Z,31.31
2023-05-13T14:30:45.101Z,32.11
2023-05-13T14:33:31.252Z,32.01
2023-05-13T14:36:17.045Z,30.97
2023-05-13T14:39:02.510Z,31.25
2023-05-13T14:41:47.874Z,31.37
2023-05-13T14:44:33.423Z,32.32
2023-05-13T14:47:18.875Z,32.69
2023-05-13T14:50:05.439Z,31.63
2023-05-13T14:52:52.305Z,32.17
2023-05-13T14:55:37.693Z,31.45
2023-05-13T14:58:23.389Z,31.15
2023-05-13T15:01:08.948Z,31.35
2023-05-13T15:03:55.457Z,31.98
2023-05-13T15:06:41.012Z,32.03
2023-05-13T15:09:26.402Z,31.54
2023-05-13T15:12:12.031Z,32.56
2023-05-13T15:14:58.588Z,32.77
2023-05-13T15:17:44.068Z,32.52
2023-05-13T15:20:30.026Z,32.01
2023-05-13T15:23:15.269Z,31.77
2023-05-13T15:26:00.678Z,32.18
2023-05-13T15:28:46.017Z,32.30
2023-05-13T15:31:32.226Z,33.15
2023-05-13T15:34:19.031Z,32.59
2023-05-13T15:37:04.569Z,33.06
2023-05-13T15:39:49.894Z,33.09
2023-05-13T15:42:35.255Z,33.46
2023-05-13T15:45:20.832Z,33.24
2023-05-13T15:48:07.177Z,33.02
2023-05-13T15:50:53.382Z,33.34
2023-05-13T15:53:40.067Z,33.21
2023-05-13T15:56:26.253Z,33.51
2023-05-13T15:59:12.334Z,33.71
2023-05-13T16:01:58.689Z,33.59
2023-05-13T16:04:44.730Z,33.41
2023-05-13T16:07:29.864Z,33.81
2023-05-13T16:10:15.529Z,33.79
2023-05-13T16:13:02.500Z,34.16
2023-05-13T16:15:47.842Z,34.02
2023-05-13T16:18:33.629Z,34.46
2023-05-13T16:21:19.528Z,34.67
2023-05-13T16:24:06.997Z,34.56
2023-05-13T16:26:52.687Z,34.37
2023-05-13T16:29:37.987Z,34.22
2023-05-13T16:32:23.924Z,34.91
2023-05-13T16:35:11.747Z,35.07
2023-05-13T16:37:56.955Z,35.32
2023-05-13T16:40:43.413Z,35.66
2023-05-13T16:43:29.118Z,35.58
2023-05-13T16:46:15.449Z,35.95
2023-05-13T16:49:02.817Z,35.82
2023-05-13T16:51:47.839Z,35.81
2023-05-13T16:54:33.321Z,35.90
2023-05-13T16:57:19.911Z,35.88
2023-05-13T17:00:06.338Z,36.07
2023-05-13T17:02:52.512Z,36.51
2023-05-13T17:05:38.660Z,36.42
2023-05-13T17:08:24.560Z,36.51
2023-05-13T17:11:16.618Z,36.69
2023-05-13T17:14:03.218Z,37.33
2023-05-13T17:16:49.117Z,37.16
2023-05-13T17:19:34.888Z,38.07
2023-05-13T17:22:20.692Z,38.39
2023-05-13T17:25:06.604Z,38.94
2023-05-13T17:27:52.108Z,39.13
2023-05-13T17:30:37.604Z,39.97
2023-05-13T17:33:23.516Z,40.04
2023-05-13T17:36:09.007Z,39.72
2023-05-13T17:38:54.437Z,39.96
2023-05-13T17:41:40.149Z,40.46
2023-05-13T17:44:26.164Z,40.04
2023-05-13T17:47:11.750Z,39.24
2023-05-13T17:49:57.187Z,39.01
2023-05-13T17:52:42.530Z,39.71
2023-05-13T17:55:28.049Z,40.48
2023-05-13T17:58:13.497Z,41.12
2023-05-13T18:00:58.985Z,41.83
2023-05-13T18:03:44.519Z,42.88
2023-05-13T18:06:29.933Z,41.62
2023-05-13T18:09:15.657Z,41.22
2023-05-13T18:12:01.113Z,41.62
2023-05-13T18:14:46.721Z,42.28
2023-05-13T18:17:32.359Z,42.02
2023-05-13T18:20:18.684Z,42.92
2023-05-13T18:23:04.280Z,43.70
2023-05-13T18:25:55.995Z,43.64
2023-05-13T18:28:44.915Z,44.01
2023-05-13T18:31:34.647Z,44.62
2023-05-13T18:34:20.426Z,44.57
2023-05-13T18:37:06.532Z,44.88
2023-05-13T18:39:51.974Z,45.20
2023-05-13T18:42:37.451Z,46.69
2023-05-13T18:45:22.869Z,47.70
2023-05-13T18:48:08.319Z,48.20
2023-05-13T18:50:53.627Z,48.67
2023-05-13T18:53:39.442Z,48.76
2023-05-13T18:56:24.829Z,48.75
2023-05-13T18:59:10.376Z,48.22
2023-05-13T19:01:56.157Z,48.46
2023-05-13T19:04:42.099Z,47.58
2023-05-13T19:07:27.852Z,48.50
2023-05-13T19:10:13.687Z,48.51
2023-05-13T19:12:59.250Z,48.71
2023-05-13T19:15:46.726Z,48.70
2023-05-13T19:18:32.398Z,48.91
2023-05-13T19:21:18.052Z,49.43
2023-05-13T19:24:03.829Z,49.79
2023-05-13T19:26:49.833Z,49.91
2023-05-13T19:29:35.428Z,50.26
2023-05-13T19:32:21.074Z,50.71
2023-05-13T19:35:08.425Z,51.66
2023-05-13T19:37:56.034Z,52.16
2023-05-13T19:40:41.722Z,52.29
2023-05-13T19:43:27.307Z,52.31
2023-05-13T19:46:12.679Z,52.10
2023-05-13T19:48:58.481Z,52.51
2023-05-13T19:51:43.858Z,53.39
2023-05-13T19:54:29.329Z,53.67
2023-05-13T19:57:15.233Z,54.20
2023-05-13T20:00:00.574Z,53.93
2023-05-13T20:02:46.385Z,53.81
2023-05-13T20:05:32.051Z,54.03
2023-05-13T20:08:17.569Z,54.12
2023-05-13T20:11:03.234Z,54.23
2023-05-13T20:13:48.821Z,54.80
2023-05-13T20:16:34.523Z,55.67
2023-05-13T20:19:20.830Z,55.84
2023-05-13T20:22:06.719Z,56.25
2023-05-13T20:24:54.364Z,56.92
2023-05-13T20:27:39.626Z,56.89
2023-05-13T20:30:26.172Z,56.88
2023-05-13T20:33:13.399Z,56.82
2023-05-13T20:35:59.413Z,56.81
2023-05-13T20:38:46.757Z,56.27
2023-05-13T20:41:32.820Z,56.20
2023-05-13T20:44:18.459Z,56.78
2023-05-13T20:47:05.096Z,56.77
2023-05-13T20:49:51.731Z,57.10
2023-05-13T20:52:37.240Z,56.84
2023-05-13T20:55:23.070Z,56.66
2023-05-13T20:58:08.362Z,56.44
2023-05-13T21:00:54.129Z,56.00
2023-05-13T21:03:39.469Z,55.92
2023-05-13T21:06:25.067Z,56.09
2023-05-13T21:09:10.691Z,57.17
2023-05-13T21:11:56.872Z,57.20
2023-05-13T21:14:42.327Z,57.43
2023-05-13T21:17:28.418Z,57.84
2023-05-13T21:20:14.423Z,58.34
2023-05-13T21:23:01.273Z,58.73
2023-05-13T21:25:46.978Z,59.10
2023-05-13T21:28:32.530Z,58.92
2023-05-13T21:31:17.987Z,58.90
2023-05-13T21:34:03.477Z,58.59
2023-05-13T21:36:49.353Z,58.42
2023-05-13T21:39:34.678Z,58.08
2023-05-13T21:42:20.946Z,57.84
2023-05-13T21:45:07.465Z,57.72
2023-05-13T21:47:53.212Z,57.40
2023-05-13T21:50:38.850Z,57.38
2023-05-13T21:53:24.668Z,56.70
2023-05-13T21:56:10.818Z,56.49
2023-05-13T21:58:56.250Z,57.00
2023-05-13T22:01:41.562Z,56.99
2023-05-13T22:04:27.060Z,57.37
2023-05-13T22:07:12.882Z,57.51
2023-05-13T22:09:58.243Z,57.57
2023-05-13T22:12:43.754Z,58.07
2023-05-13T22:15:29.043Z,58.70
2023-05-13T22:18:15.093Z,59.34
2023-05-13T22:21:00.861Z,59.53
2023-05-13T22:23:46.420Z,59.64
2023-05-13T22:26:32.967Z,59.67
2023-05-13T22:29:18.603Z,59.41
2023-05-13T22:32:04.085Z,59.42
2023-05-13T22:34:50.235Z,59.04
2023-05-13T22:37:35.580Z,59.11
2023-05-13T22:40:21.114Z,59.14
2023-05-13T22:43:06.943Z,59.76
2023-05-13T22:45:52.477Z,60.25
2023-05-13T22:48:37.987Z,60.60
2023-05-13T22:51:23.301Z,60.58
2023-05-13T22:54:08.824Z,60.21
2023-05-13T22:56:54.230Z,59.82
2023-05-13T22:59:39.540Z,59.96
2023-05-13T23:02:25.117Z,59.84
2023-05-13T23:05:10.665Z,59.71
2023-05-13T23:07:56.403Z,59.47
2023-05-13T23:10:41.883Z,59.79
2023-05-13T23:13:27.708Z,59.41
2023-05-13T23:16:13.150Z,59.05
2023-05-13T23:18:59.023Z,58.89
2023-05-13T23:21:44.602Z,59.16
2023-05-13T23:24:29.936Z,59.44
2023-05-13T23:27:15.452Z,60.29
2023-05-13T23:30:01.125Z,61.23
2023-05-13T23:32:46.476Z,61.68
2023-05-13T23:35:32.280Z,61.80
2023-05-13T23:38:17.793Z,60.97
2023-05-13T23:41:03.544Z,60.97
2023-05-13T23:43:49.292Z,60.70
2023-05-13T23:46:34.444Z,60.44
2023-05-13T23:49:20.290Z,60.58
2023-05-13T23:52:05.838Z,60.15
2023-05-13T23:54:51.479Z,60.22
2023-05-13T23:57:36.907Z,59.96
